sensor_id;sensor_type;location;lat;lon;timestamp;P1;durP1;ratioP1;P2;durP2;ratioP2
18296;SDS011;18066;52.106;5.534;2023-04-12T00:01:57;10.37;;;2.13;;
18296;SDS011;18066;52.106;5.534;2023-04-12T00:04:23;6.60;;;1.73;;
18296;SDS011;18066;52.106;5.534;2023-04-12T00:06:52;10.10;;;1.70;;
18296;SDS011;18066;52.106;5.534;2023-04-12T00:09:21;3.80;;;1.10;;
18296;SDS011;18066;52.106;5.534;2023-04-12T00:11:48;6.33;;;1.80;;
18296;SDS011;18066;52.106;5.534;2023-04-12T00:14:15;4.27;;;1.53;;
18296;SDS011;18066;52.106;5.534;2023-04-12T00:16:42;10.33;;;2.07;;
18296;SDS011;18066;52.106;5.534;2023-04-12T00:19:08;10.80;;;2.10;;
18296;SDS011;18066;52.106;5.534;2023-04-12T00:21:35;8.37;;;2.13;;
18296;SDS011;18066;52.106;5.534;2023-04-12T00:24:02;8.33;;;1.90;;
18296;SDS011;18066;52.106;5.534;2023-04-12T00:26:31;6.13;;;1.40;;
18296;SDS011;18066;52.106;5.534;2023-04-12T00:28:58;4.50;;;1.40;;
18296;SDS011;18066;52.106;5.534;2023-04-12T00:31:24;5.30;;;1.50;;
18296;SDS011;18066;52.106;5.534;2023-04-12T00:33:51;6.30;;;1.23;;
18296;SDS011;18066;52.106;5.534;2023-04-12T00:36:18;6.10;;;1.80;;
18296;SDS011;18066;52.106;5.534;2023-04-12T00:38:46;5.80;;;1.17;;
18296;SDS011;18066;52.106;5.534;2023-04-12T00:41:13;4.60;;;1.10;;
18296;SDS011;18066;52.106;5.534;2023-04-12T00:43:41;4.33;;;1.27;;
18296;SDS011;18066;52.106;5.534;2023-04-12T00:46:08;6.37;;;1.00;;
18296;SDS011;18066;52.106;5.534;2023-04-12T00:48:36;4.67;;;1.33;;
18296;SDS011;18066;52.106;5.534;2023-04-12T00:51:04;5.30;;;1.27;;
18296;SDS011;18066;52.106;5.534;2023-04-12T00:53:32;4.43;;;1.70;;
18296;SDS011;18066;52.106;5.534;2023-04-12T00:56:00;4.90;;;1.30;;
18296;SDS011;18066;52.106;5.534;2023-04-12T00:58:28;4.90;;;1.40;;
18296;SDS011;18066;52.106;5.534;2023-04-12T01:00:57;6.97;;;1.50;;
18296;SDS011;18066;52.106;5.534;2023-04-12T01:03:24;7.60;;;1.70;;
18296;SDS011;18066;52.106;5.534;2023-04-12T01:05:53;5.87;;;1.73;;
18296;SDS011;18066;52.106;5.534;2023-04-12T01:08:31;4.63;;;1.77;;
18296;SDS011;18066;52.106;5.534;2023-04-12T01:11:04;6.93;;;1.40;;
18296;SDS011;18066;52.106;5.534;2023-04-12T01:13:38;5.47;;;1.77;;
18296;SDS011;18066;52.106;5.534;2023-04-12T01:16:13;4.97;;;1.37;;
18296;SDS011;18066;52.106;5.534;2023-04-12T01:18:50;8.20;;;1.57;;
18296;SDS011;18066;52.106;5.534;2023-04-12T01:21:23;6.27;;;1.10;;
18296;SDS011;18066;52.106;5.534;2023-04-12T01:24:08;6.07;;;1.37;;
18296;SDS011;18066;52.106;5.534;2023-04-12T01:26:46;4.80;;;1.27;;
18296;SDS011;18066;52.106;5.534;2023-04-12T01:29:17;4.27;;;1.30;;
18296;SDS011;18066;52.106;5.534;2023-04-12T01:31:48;3.03;;;0.90;;
18296;SDS011;18066;52.106;5.534;2023-04-12T01:34:18;5.30;;;1.37;;
18296;SDS011;18066;52.106;5.534;2023-04-12T01:36:47;5.03;;;1.40;;
18296;SDS011;18066;52.106;5.534;2023-04-12T01:39:15;5.23;;;1.47;;
18296;SDS011;18066;52.106;5.534;2023-04-12T01:41:42;2.60;;;0.93;;
18296;SDS011;18066;52.106;5.534;2023-04-12T01:44:13;6.47;;;2.17;;
18296;SDS011;18066;52.106;5.534;2023-04-12T01:46:41;7.30;;;1.20;;
18296;SDS011;18066;52.106;5.534;2023-04-12T01:49:10;5.90;;;1.53;;
18296;SDS011;18066;52.106;5.534;2023-04-12T01:51:40;3.17;;;1.07;;
18296;SDS011;18066;52.106;5.534;2023-04-12T01:54:16;6.43;;;1.53;;
18296;SDS011;18066;52.106;5.534;2023-04-12T01:56:49;5.17;;;1.23;;
18296;SDS011;18066;52.106;5.534;2023-04-12T01:59:21;7.83;;;1.20;;
18296;SDS011;18066;52.106;5.534;2023-04-12T02:01:53;6.30;;;1.57;;
18296;SDS011;18066;52.106;5.534;2023-04-12T02:04:20;3.83;;;1.27;;
18296;SDS011;18066;52.106;5.534;2023-04-12T02:06:49;8.23;;;1.37;;
18296;SDS011;18066;52.106;5.534;2023-04-12T02:09:16;6.77;;;1.40;;
18296;SDS011;18066;52.106;5.534;2023-04-12T02:11:45;3.53;;;1.43;;
18296;SDS011;18066;52.106;5.534;2023-04-12T02:14:13;2.67;;;1.13;;
18296;SDS011;18066;52.106;5.534;2023-04-12T02:16:40;5.77;;;1.70;;
18296;SDS011;18066;52.106;5.534;2023-04-12T02:19:10;3.27;;;1.13;;
18296;SDS011;18066;52.106;5.534;2023-04-12T02:21:40;7.90;;;1.93;;
18296;SDS011;18066;52.106;5.534;2023-04-12T02:24:08;4.97;;;1.33;;
18296;SDS011;18066;52.106;5.534;2023-04-12T02:26:35;4.87;;;1.30;;
18296;SDS011;18066;52.106;5.534;2023-04-12T02:29:02;7.70;;;1.93;;
18296;SDS011;18066;52.106;5.534;2023-04-12T02:31:31;4.00;;;1.40;;
18296;SDS011;18066;52.106;5.534;2023-04-12T02:33:59;4.47;;;1.37;;
18296;SDS011;18066;52.106;5.534;2023-04-12T02:36:27;11.60;;;1.90;;
18296;SDS011;18066;52.106;5.534;2023-04-12T02:38:54;5.23;;;1.60;;
18296;SDS011;18066;52.106;5.534;2023-04-12T02:41:21;5.93;;;2.20;;
18296;SDS011;18066;52.106;5.534;2023-04-12T02:43:49;7.47;;;1.60;;
18296;SDS011;18066;52.106;5.534;2023-04-12T02:46:17;6.00;;;1.87;;
18296;SDS011;18066;52.106;5.534;2023-04-12T02:48:45;5.47;;;1.53;;
18296;SDS011;18066;52.106;5.534;2023-04-12T02:51:12;7.63;;;2.00;;
18296;SDS011;18066;52.106;5.534;2023-04-12T02:53:40;3.53;;;1.80;;
18296;SDS011;18066;52.106;5.534;2023-04-12T02:56:08;6.83;;;1.50;;
18296;SDS011;18066;52.106;5.534;2023-04-12T02:58:35;3.87;;;1.73;;
18296;SDS011;18066;52.106;5.534;2023-04-12T03:01:02;8.60;;;1.67;;
18296;SDS011;18066;52.106;5.534;2023-04-12T03:03:32;4.43;;;1.50;;
18296;SDS011;18066;52.106;5.534;2023-04-12T03:05:59;5.37;;;2.20;;
18296;SDS011;18066;52.106;5.534;2023-04-12T03:08:27;5.23;;;1.67;;
18296;SDS011;18066;52.106;5.534;2023-04-12T03:10:55;2.53;;;1.47;;
18296;SDS011;18066;52.106;5.534;2023-04-12T03:13:22;5.63;;;1.33;;
18296;SDS011;18066;52.106;5.534;2023-04-12T03:15:54;4.07;;;1.53;;
18296;SDS011;18066;52.106;5.534;2023-04-12T03:18:23;5.23;;;1.70;;
18296;SDS011;18066;52.106;5.534;2023-04-12T03:20:50;3.87;;;1.40;;
18296;SDS011;18066;52.106;5.534;2023-04-12T03:23:17;6.13;;;1.47;;
18296;SDS011;18066;52.106;5.534;2023-04-12T03:25:44;5.50;;;1.97;;
18296;SDS011;18066;52.106;5.534;2023-04-12T03:28:12;6.80;;;1.70;;
18296;SDS011;18066;52.106;5.534;2023-04-12T03:30:39;3.37;;;1.30;;
18296;SDS011;18066;52.106;5.534;2023-04-12T03:33:06;4.37;;;1.50;;
18296;SDS011;18066;52.106;5.534;2023-04-12T03:35:33;4.80;;;1.77;;
18296;SDS011;18066;52.106;5.534;2023-04-12T03:38:00;3.57;;;1.20;;
18296;SDS011;18066;52.106;5.534;2023-04-12T03:40:26;3.43;;;1.03;;
18296;SDS011;18066;52.106;5.534;2023-04-12T03:42:53;4.87;;;1.27;;
18296;SDS011;18066;52.106;5.534;2023-04-12T03:45:21;3.87;;;1.30;;
18296;SDS011;18066;52.106;5.534;2023-04-12T03:47:49;5.20;;;1.40;;
18296;SDS011;18066;52.106;5.534;2023-04-12T03:50:15;3.30;;;1.30;;
18296;SDS011;18066;52.106;5.534;2023-04-12T03:52:43;6.57;;;1.30;;
18296;SDS011;18066;52.106;5.534;2023-04-12T03:55:10;3.33;;;1.13;;
18296;SDS011;18066;52.106;5.534;2023-04-12T03:57:37;3.33;;;1.10;;
18296;SDS011;18066;52.106;5.534;2023-04-12T04:00:04;1.93;;;1.00;;
18296;SDS011;18066;52.106;5.534;2023-04-12T04:02:35;5.47;;;1.70;;
18296;SDS011;18066;52.106;5.534;2023-04-12T04:05:02;6.30;;;1.20;;
18296;SDS011;18066;52.106;5.534;2023-04-12T04:07:29;4.07;;;1.40;;
18296;SDS011;18066;52.106;5.534;2023-04-12T04:09:57;3.93;;;1.50;;
18296;SDS011;18066;52.106;5.534;2023-04-12T04:12:24;7.43;;;1.40;;
18296;SDS011;18066;52.106;5.534;2023-04-12T04:14:53;4.33;;;1.27;;
18296;SDS011;18066;52.106;5.534;2023-04-12T04:17:19;5.80;;;1.17;;
18296;SDS011;18066;52.106;5.534;2023-04-12T04:19:48;5.97;;;1.67;;
18296;SDS011;18066;52.106;5.534;2023-04-12T04:22:15;6.90;;;1.50;;
18296;SDS011;18066;52.106;5.534;2023-04-12T04:24:45;1.73;;;1.20;;
18296;SDS011;18066;52.106;5.534;2023-04-12T04:27:12;3.27;;;1.10;;
18296;SDS011;18066;52.106;5.534;2023-04-12T04:29:39;3.17;;;1.10;;
18296;SDS011;18066;52.106;5.534;2023-04-12T04:32:09;1.73;;;1.33;;
18296;SDS011;18066;52.106;5.534;2023-04-12T04:34:36;4.93;;;2.00;;
18296;SDS011;18066;52.106;5.534;2023-04-12T04:37:05;6.23;;;1.40;;
18296;SDS011;18066;52.106;5.534;2023-04-12T04:39:32;5.53;;;1.33;;
18296;SDS011;18066;52.106;5.534;2023-04-12T04:41:59;2.33;;;1.20;;
18296;SDS011;18066;52.106;5.534;2023-04-12T04:44:26;4.90;;;1.60;;
18296;SDS011;18066;52.106;5.534;2023-04-12T04:46:53;3.97;;;1.60;;
18296;SDS011;18066;52.106;5.534;2023-04-12T04:49:20;2.77;;;1.30;;
18296;SDS011;18066;52.106;5.534;2023-04-12T04:51:47;3.63;;;1.60;;
18296;SDS011;18066;52.106;5.534;2023-04-12T04:54:15;2.50;;;1.20;;
18296;SDS011;18066;52.106;5.534;2023-04-12T04:56:42;3.37;;;1.30;;
18296;SDS011;18066;52.106;5.534;2023-04-12T04:59:09;4.13;;;1.67;;
18296;SDS011;18066;52.106;5.534;2023-04-12T05:01:36;4.47;;;1.83;;
18296;SDS011;18066;52.106;5.534;2023-04-12T05:04:03;4.57;;;1.57;;
18296;SDS011;18066;52.106;5.534;2023-04-12T05:06:29;3.23;;;1.40;;
18296;SDS011;18066;52.106;5.534;2023-04-12T05:08:56;2.43;;;1.30;;
18296;SDS011;18066;52.106;5.534;2023-04-12T05:11:26;5.17;;;1.50;;
18296;SDS011;18066;52.106;5.534;2023-04-12T05:13:53;1.20;;;1.10;;
18296;SDS011;18066;52.106;5.534;2023-04-12T05:16:20;1.60;;;1.00;;
18296;SDS011;18066;52.106;5.534;2023-04-12T05:18:47;1.60;;;1.20;;
18296;SDS011;18066;52.106;5.534;2023-04-12T05:21:13;2.70;;;1.43;;
18296;SDS011;18066;52.106;5.534;2023-04-12T05:23:41;6.03;;;1.50;;
18296;SDS011;18066;52.106;5.534;2023-04-12T05:26:10;1.30;;;1.00;;
18296;SDS011;18066;52.106;5.534;2023-04-12T05:28:38;1.90;;;1.47;;
18296;SDS011;18066;52.106;5.534;2023-04-12T05:31:05;2.57;;;1.23;;
18296;SDS011;18066;52.106;5.534;2023-04-12T05:33:32;2.20;;;1.50;;
18296;SDS011;18066;52.106;5.534;2023-04-12T05:36:00;2.43;;;1.70;;
18296;SDS011;18066;52.106;5.534;2023-04-12T05:38:27;5.73;;;1.30;;
18296;SDS011;18066;52.106;5.534;2023-04-12T05:40:54;3.17;;;1.60;;
18296;SDS011;18066;52.106;5.534;2023-04-12T05:43:21;3.57;;;1.60;;
18296;SDS011;18066;52.106;5.534;2023-04-12T05:45:50;4.97;;;1.70;;
18296;SDS011;18066;52.106;5.534;2023-04-12T05:48:16;1.87;;;1.13;;
18296;SDS011;18066;52.106;5.534;2023-04-12T05:50:49;2.70;;;1.23;;
18296;SDS011;18066;52.106;5.534;2023-04-12T05:53:16;3.83;;;1.47;;
18296;SDS011;18066;52.106;5.534;2023-04-12T05:55:43;2.83;;;1.40;;
18296;SDS011;18066;52.106;5.534;2023-04-12T05:58:10;2.17;;;1.43;;
18296;SDS011;18066;52.106;5.534;2023-04-12T06:00:37;3.10;;;1.30;;
18296;SDS011;18066;52.106;5.534;2023-04-12T06:03:07;2.93;;;1.47;;
18296;SDS011;18066;52.106;5.534;2023-04-12T06:05:34;2.90;;;1.33;;
18296;SDS011;18066;52.106;5.534;2023-04-12T06:08:01;2.77;;;1.27;;
18296;SDS011;18066;52.106;5.534;2023-04-12T06:10:29;4.57;;;1.53;;
18296;SDS011;18066;52.106;5.534;2023-04-12T06:12:56;2.00;;;1.50;;
18296;SDS011;18066;52.106;5.534;2023-04-12T06:15:23;1.57;;;1.10;;
18296;SDS011;18066;52.106;5.534;2023-04-12T06:17:50;3.07;;;1.50;;
18296;SDS011;18066;52.106;5.534;2023-04-12T06:20:18;3.43;;;1.90;;
18296;SDS011;18066;52.106;5.534;2023-04-12T06:22:45;3.90;;;1.87;;
18296;SDS011;18066;52.106;5.534;2023-04-12T06:25:12;3.73;;;1.77;;
18296;SDS011;18066;52.106;5.534;2023-04-12T06:27:40;3.63;;;1.70;;
18296;SDS011;18066;52.106;5.534;2023-04-12T06:30:07;2.23;;;1.70;;
18296;SDS011;18066;52.106;5.534;2023-04-12T06:32:34;11.07;;;2.55;;
18296;SDS011;18066;52.106;5.534;2023-04-12T06:35:03;3.83;;;2.10;;
18296;SDS011;18066;52.106;5.534;2023-04-12T06:37:31;2.53;;;1.70;;
18296;SDS011;18066;52.106;5.534;2023-04-12T06:39:58;2.00;;;1.63;;
18296;SDS011;18066;52.106;5.534;2023-04-12T06:42:25;2.07;;;1.70;;
18296;SDS011;18066;52.106;5.534;2023-04-12T06:44:52;2.43;;;1.90;;
18296;SDS011;18066;52.106;5.534;2023-04-12T06:47:19;2.97;;;1.80;;
18296;SDS011;18066;52.106;5.534;2023-04-12T06:49:46;3.00;;;2.00;;
18296;SDS011;18066;52.106;5.534;2023-04-12T06:52:15;2.97;;;2.03;;
18296;SDS011;18066;52.106;5.534;2023-04-12T06:54:44;3.47;;;1.60;;
18296;SDS011;18066;52.106;5.534;2023-04-12T06:57:11;2.72;;;2.50;;
18296;SDS011;18066;52.106;5.534;2023-04-12T06:59:38;4.38;;;2.25;;
18296;SDS011;18066;52.106;5.534;2023-04-12T07:02:05;3.30;;;1.80;;
18296;SDS011;18066;52.106;5.534;2023-04-12T07:04:32;4.37;;;2.07;;
18296;SDS011;18066;52.106;5.534;2023-04-12T07:06:59;3.15;;;2.28;;
18296;SDS011;18066;52.106;5.534;2023-04-12T07:09:26;9.50;;;2.70;;
18296;SDS011;18066;52.106;5.534;2023-04-12T07:11:54;3.90;;;2.40;;
18296;SDS011;18066;52.106;5.534;2023-04-12T07:14:21;3.57;;;2.20;;
18296;SDS011;18066;52.106;5.534;2023-04-12T07:16:48;3.00;;;2.23;;
18296;SDS011;18066;52.106;5.534;2023-04-12T07:19:15;3.63;;;2.00;;
18296;SDS011;18066;52.106;5.534;2023-04-12T07:21:42;6.20;;;2.43;;
18296;SDS011;18066;52.106;5.534;2023-04-12T07:24:08;3.27;;;2.47;;
18296;SDS011;18066;52.106;5.534;2023-04-12T07:26:35;4.37;;;2.40;;
18296;SDS011;18066;52.106;5.534;2023-04-12T07:29:03;4.13;;;2.73;;
18296;SDS011;18066;52.106;5.534;2023-04-12T07:31:30;5.47;;;2.70;;
18296;SDS011;18066;52.106;5.534;2023-04-12T07:33:57;4.37;;;2.47;;
18296;SDS011;18066;52.106;5.534;2023-04-12T07:36:24;7.77;;;3.07;;
18296;SDS011;18066;52.106;5.534;2023-04-12T07:38:51;7.60;;;2.43;;
18296;SDS011;18066;52.106;5.534;2023-04-12T07:41:19;6.47;;;2.90;;
18296;SDS011;18066;52.106;5.534;2023-04-12T07:43:46;7.90;;;2.80;;
18296;SDS011;18066;52.106;5.534;2023-04-12T07:46:15;8.60;;;2.60;;
18296;SDS011;18066;52.106;5.534;2023-04-12T07:48:42;4.90;;;3.10;;
18296;SDS011;18066;52.106;5.534;2023-04-12T07:51:09;6.30;;;2.83;;
18296;SDS011;18066;52.106;5.534;2023-04-12T07:53:36;7.73;;;3.03;;
18296;SDS011;18066;52.106;5.534;2023-04-12T07:56:05;5.17;;;2.53;;
18296;SDS011;18066;52.106;5.534;2023-04-12T07:58:32;7.90;;;2.97;;
18296;SDS011;18066;52.106;5.534;2023-04-12T08:00:59;4.80;;;3.07;;
18296;SDS011;18066;52.106;5.534;2023-04-12T08:03:27;7.63;;;3.03;;
18296;SDS011;18066;52.106;5.534;2023-04-12T08:05:54;6.30;;;3.10;;
18296;SDS011;18066;52.106;5.534;2023-04-12T08:08:21;11.23;;;3.10;;
18296;SDS011;18066;52.106;5.534;2023-04-12T08:10:48;9.23;;;3.80;;
18296;SDS011;18066;52.106;5.534;2023-04-12T08:13:16;11.83;;;4.60;;
18296;SDS011;18066;52.106;5.534;2023-04-12T08:15:42;6.43;;;2.83;;
18296;SDS011;18066;52.106;5.534;2023-04-12T08:18:11;9.17;;;3.10;;
18296;SDS011;18066;52.106;5.534;2023-04-12T08:20:39;6.30;;;2.90;;
18296;SDS011;18066;52.106;5.534;2023-04-12T08:23:08;13.50;;;3.30;;
18296;SDS011;18066;52.106;5.534;2023-04-12T08:25:35;9.13;;;3.43;;
18296;SDS011;18066;52.106;5.534;2023-04-12T08:28:02;13.60;;;4.00;;
18296;SDS011;18066;52.106;5.534;2023-04-12T08:30:31;12.40;;;3.40;;
18296;SDS011;18066;52.106;5.534;2023-04-12T08:32:58;13.60;;;3.97;;
18296;SDS011;18066;52.106;5.534;2023-04-12T08:35:24;13.27;;;4.03;;
18296;SDS011;18066;52.106;5.534;2023-04-12T08:37:53;16.53;;;3.67;;
18296;SDS011;18066;52.106;5.534;2023-04-12T08:40:19;12.37;;;4.17;;
18296;SDS011;18066;52.106;5.534;2023-04-12T08:42:46;15.63;;;3.77;;
18296;SDS011;18066;52.106;5.534;2023-04-12T08:45:13;15.57;;;3.97;;
18296;SDS011;18066;52.106;5.534;2023-04-12T08:47:40;9.13;;;3.17;;
18296;SDS011;18066;52.106;5.534;2023-04-12T08:50:09;12.60;;;3.70;;
18296;SDS011;18066;52.106;5.534;2023-04-12T08:52:38;8.47;;;2.83;;
18296;SDS011;18066;52.106;5.534;2023-04-12T08:55:07;15.30;;;3.23;;
18296;SDS011;18066;52.106;5.534;2023-04-12T08:57:35;12.40;;;3.57;;
18296;SDS011;18066;52.106;5.534;2023-04-12T09:00:05;10.63;;;2.73;;
18296;SDS011;18066;52.106;5.534;2023-04-12T09:02:34;13.27;;;3.50;;
18296;SDS011;18066;52.106;5.534;2023-04-12T09:05:01;13.30;;;2.80;;
18296;SDS011;18066;52.106;5.534;2023-04-12T09:07:28;13.90;;;3.10;;
18296;SDS011;18066;52.106;5.534;2023-04-12T09:09:56;15.53;;;2.60;;
18296;SDS011;18066;52.106;5.534;2023-04-12T09:12:25;11.80;;;3.00;;
18296;SDS011;18066;52.106;5.534;2023-04-12T09:15:04;11.77;;;2.40;;
18296;SDS011;18066;52.106;5.534;2023-04-12T09:17:33;15.50;;;2.90;;
18296;SDS011;18066;52.106;5.534;2023-04-12T09:20:05;9.07;;;3.00;;
18296;SDS011;18066;52.106;5.534;2023-04-12T09:22:50;13.53;;;2.77;;
18296;SDS011;18066;52.106;5.534;2023-04-12T09:25:19;14.73;;;3.60;;
18296;SDS011;18066;52.106;5.534;2023-04-12T09:28:03;9.00;;;2.70;;
18296;SDS011;18066;52.106;5.534;2023-04-12T09:30:42;9.93;;;1.83;;
18296;SDS011;18066;52.106;5.534;2023-04-12T09:33:12;17.93;;;2.70;;
18296;SDS011;18066;52.106;5.534;2023-04-12T09:35:39;13.60;;;2.53;;
18296;SDS011;18066;52.106;5.534;2023-04-12T09:38:07;15.40;;;2.83;;
18296;SDS011;18066;52.106;5.534;2023-04-12T09:40:34;13.87;;;2.77;;
18296;SDS011;18066;52.106;5.534;2023-04-12T09:43:03;12.57;;;2.47;;
18296;SDS011;18066;52.106;5.534;2023-04-12T09:45:32;15.57;;;2.50;;
18296;SDS011;18066;52.106;5.534;2023-04-12T09:48:01;11.87;;;2.03;;
18296;SDS011;18066;52.106;5.534;2023-04-12T09:50:29;20.80;;;3.20;;
18296;SDS011;18066;52.106;5.534;2023-04-12T09:52:58;19.20;;;3.20;;
18296;SDS011;18066;52.106;5.534;2023-04-12T09:55:26;18.00;;;2.80;;
18296;SDS011;18066;52.106;5.534;2023-04-12T09:57:55;13.00;;;2.43;;
18296;SDS011;18066;52.106;5.534;2023-04-12T10:00:26;17.43;;;3.20;;
18296;SDS011;18066;52.106;5.534;2023-04-12T10:02:55;11.90;;;3.13;;
18296;SDS011;18066;52.106;5.534;2023-04-12T10:05:23;18.67;;;2.53;;
18296;SDS011;18066;52.106;5.534;2023-04-12T10:07:51;12.23;;;2.73;;
18296;SDS011;18066;52.106;5.534;2023-04-12T10:10:18;16.10;;;2.70;;
18296;SDS011;18066;52.106;5.534;2023-04-12T10:12:46;16.33;;;2.70;;
18296;SDS011;18066;52.106;5.534;2023-04-12T10:15:14;17.20;;;2.97;;
18296;SDS011;18066;52.106;5.534;2023-04-12T10:17:44;16.30;;;2.60;;
18296;SDS011;18066;52.106;5.534;2023-04-12T10:20:12;15.33;;;2.47;;
18296;SDS011;18066;52.106;5.534;2023-04-12T10:22:41;19.40;;;3.03;;
18296;SDS011;18066;52.106;5.534;2023-04-12T10:25:09;11.60;;;2.77;;
18296;SDS011;18066;52.106;5.534;2023-04-12T10:27:38;19.50;;;2.73;;
18296;SDS011;18066;52.106;5.534;2023-04-12T10:30:22;12.07;;;2.40;;
18296;SDS011;18066;52.106;5.534;2023-04-12T10:33:11;15.67;;;2.90;;
18296;SDS011;18066;52.106;5.534;2023-04-12T10:35:49;14.10;;;2.97;;
18296;SDS011;18066;52.106;5.534;2023-04-12T10:38:17;14.33;;;2.63;;
18296;SDS011;18066;52.106;5.534;2023-04-12T10:43:33;14.07;;;2.37;;
18296;SDS011;18066;52.106;5.534;2023-04-12T10:46:00;12.60;;;2.47;;
18296;SDS011;18066;52.106;5.534;2023-04-12T10:48:31;12.47;;;2.83;;
18296;SDS011;18066;52.106;5.534;2023-04-12T10:51:14;16.73;;;2.50;;
18296;SDS011;18066;52.106;5.534;2023-04-12T10:53:49;17.13;;;2.40;;
18296;SDS011;18066;52.106;5.534;2023-04-12T10:56:36;12.30;;;2.87;;
18296;SDS011;18066;52.106;5.534;2023-04-12T10:59:03;13.23;;;2.83;;
18296;SDS011;18066;52.106;5.534;2023-04-12T11:01:31;15.30;;;3.17;;
18296;SDS011;18066;52.106;5.534;2023-04-12T11:04:10;25.63;;;2.77;;
18296;SDS011;18066;52.106;5.534;2023-04-12T11:06:41;18.30;;;2.83;;
18296;SDS011;18066;52.106;5.534;2023-04-12T11:09:21;14.43;;;2.80;;
18296;SDS011;18066;52.106;5.534;2023-04-12T11:11:50;12.57;;;2.90;;
18296;SDS011;18066;52.106;5.534;2023-04-12T11:14:24;16.53;;;2.43;;
18296;SDS011;18066;52.106;5.534;2023-04-12T11:19:51;10.57;;;2.13;;
18296;SDS011;18066;52.106;5.534;2023-04-12T11:22:20;13.97;;;3.20;;
18296;SDS011;18066;52.106;5.534;2023-04-12T11:24:48;17.67;;;2.43;;
18296;SDS011;18066;52.106;5.534;2023-04-12T11:27:17;11.73;;;2.70;;
18296;SDS011;18066;52.106;5.534;2023-04-12T11:29:46;16.17;;;2.90;;
18296;SDS011;18066;52.106;5.534;2023-04-12T11:32:14;14.37;;;2.70;;
18296;SDS011;18066;52.106;5.534;2023-04-12T11:34:42;19.60;;;3.67;;
18296;SDS011;18066;52.106;5.534;2023-04-12T11:37:12;15.33;;;3.77;;
18296;SDS011;18066;52.106;5.534;2023-04-12T11:39:39;15.07;;;3.03;;
18296;SDS011;18066;52.106;5.534;2023-04-12T11:42:11;18.10;;;3.67;;
18296;SDS011;18066;52.106;5.534;2023-04-12T11:44:40;15.67;;;2.67;;
18296;SDS011;18066;52.106;5.534;2023-04-12T11:47:14;13.90;;;2.63;;
18296;SDS011;18066;52.106;5.534;2023-04-12T11:49:42;16.83;;;2.70;;
18296;SDS011;18066;52.106;5.534;2023-04-12T11:52:12;15.17;;;1.97;;
18296;SDS011;18066;52.106;5.534;2023-04-12T11:54:43;8.73;;;2.43;;
18296;SDS011;18066;52.106;5.534;2023-04-12T11:57:12;15.73;;;3.37;;
18296;SDS011;18066;52.106;5.534;2023-04-12T11:59:42;13.33;;;2.30;;
18296;SDS011;18066;52.106;5.534;2023-04-12T12:02:10;11.63;;;2.13;;
18296;SDS011;18066;52.106;5.534;2023-04-12T12:04:37;10.20;;;2.17;;
18296;SDS011;18066;52.106;5.534;2023-04-12T12:07:05;9.73;;;1.87;;
18296;SDS011;18066;52.106;5.534;2023-04-12T12:09:34;10.10;;;1.40;;
18296;SDS011;18066;52.106;5.534;2023-04-12T12:12:01;12.37;;;2.27;;
18296;SDS011;18066;52.106;5.534;2023-04-12T12:14:28;10.77;;;1.97;;
18296;SDS011;18066;52.106;5.534;2023-04-12T12:16:59;9.77;;;1.97;;
18296;SDS011;18066;52.106;5.534;2023-04-12T12:19:27;15.90;;;2.53;;
18296;SDS011;18066;52.106;5.534;2023-04-12T12:22:04;5.70;;;1.20;;
18296;SDS011;18066;52.106;5.534;2023-04-12T12:24:39;7.23;;;1.60;;
18296;SDS011;18066;52.106;5.534;2023-04-12T12:27:10;5.27;;;1.60;;
18296;SDS011;18066;52.106;5.534;2023-04-12T12:29:37;5.97;;;1.37;;
18296;SDS011;18066;52.106;5.534;2023-04-12T12:32:13;7.50;;;1.70;;
18296;SDS011;18066;52.106;5.534;2023-04-12T12:34:48;6.40;;;1.53;;
18296;SDS011;18066;52.106;5.534;2023-04-12T12:37:18;7.27;;;1.97;;
18296;SDS011;18066;52.106;5.534;2023-04-12T12:40:00;11.63;;;1.60;;
18296;SDS011;18066;52.106;5.534;2023-04-12T12:42:31;7.40;;;1.50;;
18296;SDS011;18066;52.106;5.534;2023-04-12T12:44:59;17.73;;;1.93;;
18296;SDS011;18066;52.106;5.534;2023-04-12T12:47:28;7.97;;;1.73;;
18296;SDS011;18066;52.106;5.534;2023-04-12T12:49:55;5.77;;;1.53;;
18296;SDS011;18066;52.106;5.534;2023-04-12T12:52:22;6.87;;;1.40;;
18296;SDS011;18066;52.106;5.534;2023-04-12T12:54:48;4.83;;;1.27;;
18296;SDS011;18066;52.106;5.534;2023-04-12T12:57:16;6.17;;;1.00;;
18296;SDS011;18066;52.106;5.534;2023-04-12T12:59:43;6.53;;;1.30;;
18296;SDS011;18066;52.106;5.534;2023-04-12T13:02:10;9.70;;;1.30;;
18296;SDS011;18066;52.106;5.534;2023-04-12T13:04:39;9.90;;;1.40;;
18296;SDS011;18066;52.106;5.534;2023-04-12T13:07:06;6.50;;;1.30;;
18296;SDS011;18066;52.106;5.534;2023-04-12T13:09:33;5.40;;;0.87;;
18296;SDS011;18066;52.106;5.534;2023-04-12T13:11:59;7.53;;;1.10;;
18296;SDS011;18066;52.106;5.534;2023-04-12T13:14:28;3.23;;;1.07;;
18296;SDS011;18066;52.106;5.534;2023-04-12T13:16:55;10.27;;;1.13;;
18296;SDS011;18066;52.106;5.534;2023-04-12T13:19:22;6.33;;;1.33;;
18296;SDS011;18066;52.106;5.534;2023-04-12T13:21:48;8.13;;;1.70;;
18296;SDS011;18066;52.106;5.534;2023-04-12T13:24:15;8.83;;;1.57;;
18296;SDS011;18066;52.106;5.534;2023-04-12T13:26:42;9.03;;;1.20;;
18296;SDS011;18066;52.106;5.534;2023-04-12T13:29:09;4.37;;;0.90;;
18296;SDS011;18066;52.106;5.534;2023-04-12T13:31:37;4.93;;;1.30;;
18296;SDS011;18066;52.106;5.534;2023-04-12T13:34:04;7.37;;;1.03;;
18296;SDS011;18066;52.106;5.534;2023-04-12T13:36:31;6.13;;;1.50;;
18296;SDS011;18066;52.106;5.534;2023-04-12T13:38:57;3.97;;;0.93;;
18296;SDS011;18066;52.106;5.534;2023-04-12T13:41:24;5.03;;;1.10;;
18296;SDS011;18066;52.106;5.534;2023-04-12T13:43:51;4.67;;;0.93;;
18296;SDS011;18066;52.106;5.534;2023-04-12T13:46:18;4.80;;;0.90;;
18296;SDS011;18066;52.106;5.534;2023-04-12T13:48:47;4.30;;;0.63;;
18296;SDS011;18066;52.106;5.534;2023-04-12T13:51:14;5.97;;;1.10;;
18296;SDS011;18066;52.106;5.534;2023-04-12T13:53:42;3.63;;;1.13;;
18296;SDS011;18066;52.106;5.534;2023-04-12T13:56:08;4.93;;;1.20;;
18296;SDS011;18066;52.106;5.534;2023-04-12T13:58:35;3.83;;;0.80;;
18296;SDS011;18066;52.106;5.534;2023-04-12T14:01:04;7.60;;;1.10;;
18296;SDS011;18066;52.106;5.534;2023-04-12T14:03:31;4.20;;;0.90;;
18296;SDS011;18066;52.106;5.534;2023-04-12T14:05:59;2.73;;;0.60;;
18296;SDS011;18066;52.106;5.534;2023-04-12T14:08:27;4.87;;;0.93;;
18296;SDS011;18066;52.106;5.534;2023-04-12T14:10:54;4.50;;;1.13;;
18296;SDS011;18066;52.106;5.534;2023-04-12T14:13:21;2.33;;;1.03;;
18296;SDS011;18066;52.106;5.534;2023-04-12T14:15:48;3.50;;;0.80;;
18296;SDS011;18066;52.106;5.534;2023-04-12T14:18:15;6.95;;;1.10;;
18296;SDS011;18066;52.106;5.534;2023-04-12T14:20:42;8.07;;;0.87;;
18296;SDS011;18066;52.106;5.534;2023-04-12T14:23:15;10.33;;;1.53;;
18296;SDS011;18066;52.106;5.534;2023-04-12T14:25:42;7.30;;;1.07;;
18296;SDS011;18066;52.106;5.534;2023-04-12T14:28:09;4.17;;;0.70;;
18296;SDS011;18066;52.106;5.534;2023-04-12T14:30:41;5.23;;;0.80;;
18296;SDS011;18066;52.106;5.534;2023-04-12T14:33:07;3.20;;;0.90;;
18296;SDS011;18066;52.106;5.534;2023-04-12T14:35:34;5.53;;;1.00;;
18296;SDS011;18066;52.106;5.534;2023-04-12T14:38:01;5.13;;;0.90;;
18296;SDS011;18066;52.106;5.534;2023-04-12T14:40:31;1.63;;;0.60;;
18296;SDS011;18066;52.106;5.534;2023-04-12T14:42:58;3.43;;;0.80;;
18296;SDS011;18066;52.106;5.534;2023-04-12T14:45:25;6.77;;;0.80;;
18296;SDS011;18066;52.106;5.534;2023-04-12T14:47:52;3.73;;;1.20;;
18296;SDS011;18066;52.106;5.534;2023-04-12T14:50:19;5.47;;;0.90;;
18296;SDS011;18066;52.106;5.534;2023-04-12T14:52:46;3.83;;;1.00;;
18296;SDS011;18066;52.106;5.534;2023-04-12T14:55:13;2.37;;;0.90;;
18296;SDS011;18066;52.106;5.534;2023-04-12T14:57:43;3.60;;;0.77;;